createdAt,value
2023-04-25T00:00:18.439Z,94413.78
2023-04-25T00:02:45.278Z,94414.44
2023-04-25T00:05:12.562Z,94421.06
2023-04-25T00:07:39.598Z,94417.88
2023-04-25T00:10:07.301Z,94421.88
2023-04-25T00:12:34.516Z,94419.19
2023-04-25T00:15:01.480Z,94417.81
2023-04-25T00:17:28.328Z,94421.84
2023-04-25T00:19:55.177Z,94421.03
2023-04-25T00:22:21.881Z,94417.81
2023-04-25T00:24:48.783Z,94411.31
2023-04-25T00:27:15.851Z,94408.00
2023-04-25T00:29:42.435Z,94410.91
2023-04-25T00:32:10.057Z,94405.72
2023-04-25T00:34:36.996Z,94401.56
2023-04-25T00:37:03.846Z,94392.31
2023-04-25T00:39:30.500Z,94397.84
2023-04-25T00:41:58.637Z,94404.31
2023-04-25T00:44:25.852Z,94403.03
2023-04-25T00:46:53.338Z,94401.06
2023-04-25T00:49:19.906Z,94403.91
2023-04-25T00:51:46.738Z,94402.44
2023-04-25T00:54:14.558Z,94401.50
2023-04-25T00:56:41.700Z,94398.16
2023-04-25T00:59:10.657Z,94392.22
2023-04-25T01:01:38.777Z,94384.78
2023-04-25T01:04:05.824Z,94382.63
2023-04-25T01:06:33.052Z,94382.13
2023-04-25T01:09:00.449Z,94376.19
2023-04-25T01:11:27.054Z,94381.44
2023-04-25T01:13:53.914Z,94382.66
2023-04-25T01:16:21.443Z,94380.38
2023-04-25T01:18:49.094Z,94384.53
2023-04-25T01:21:16.397Z,94383.72
2023-04-25T01:23:43.673Z,94385.50
2023-04-25T01:26:11.912Z,94383.50
2023-04-25T01:28:42.126Z,94373.28
2023-04-25T01:31:10.276Z,94376.38
2023-04-25T01:33:37.437Z,94376.22
2023-04-25T01:36:04.544Z,94374.88
2023-04-25T01:38:31.171Z,94380.53
2023-04-25T01:40:58.049Z,94375.94
2023-04-25T01:43:24.917Z,94375.28
2023-04-25T01:45:52.393Z,94362.22
2023-04-25T01:48:19.723Z,94365.03
2023-04-25T01:50:47.706Z,94366.13
2023-04-25T01:53:15.694Z,94368.00
2023-04-25T01:55:44.684Z,94371.75
2023-04-25T01:58:14.840Z,94375.41
2023-04-25T02:01:00.789Z,94375.94
2023-04-25T02:03:33.784Z,94367.03
2023-04-25T02:06:01.715Z,94361.66
2023-04-25T02:08:31.207Z,94371.47
2023-04-25T02:10:58.571Z,94372.28
2023-04-25T02:13:30.999Z,94372.00
2023-04-25T02:16:14.334Z,94380.09
2023-04-25T02:18:41.145Z,94378.19
2023-04-25T02:21:07.788Z,94376.72
2023-04-25T02:23:34.627Z,94366.09
2023-04-25T02:26:01.274Z,94365.53
2023-04-25T02:28:27.975Z,94374.44
2023-04-25T02:30:55.120Z,94374.94
2023-04-25T02:33:22.068Z,94369.78
2023-04-25T02:35:49.191Z,94376.16
2023-04-25T02:38:16.134Z,94384.81
2023-04-25T02:40:42.742Z,94408.25
2023-04-25T02:43:09.470Z,94407.75
2023-04-25T02:45:36.546Z,94404.56
2023-04-25T02:48:04.215Z,94404.56
2023-04-25T02:50:32.532Z,94402.41
2023-04-25T02:52:59.727Z,94397.22
2023-04-25T02:55:31.558Z,94390.75
2023-04-25T02:58:00.525Z,94396.72
2023-04-25T03:00:38.065Z,94390.00
2023-04-25T03:03:04.888Z,94374.63
2023-04-25T03:05:31.713Z,94377.88
2023-04-25T03:07:58.910Z,94383.53
2023-04-25T03:10:27.316Z,94383.25
2023-04-25T03:12:54.717Z,94388.66
2023-04-25T03:15:21.363Z,94387.56
2023-04-25T03:17:47.987Z,94379.31
2023-04-25T03:20:14.581Z,94374.63
2023-04-25T03:22:41.396Z,94378.91
2023-04-25T03:25:08.705Z,94370.03
2023-04-25T03:27:35.342Z,94365.84
2023-04-25T03:30:03.444Z,94367.47
2023-04-25T03:32:30.731Z,94368.25
2023-04-25T03:34:57.523Z,94362.34
2023-04-25T03:37:26.289Z,94364.72
2023-04-25T03:39:52.836Z,94365.78
2023-04-25T03:42:19.744Z,94364.84
2023-04-25T03:44:46.785Z,94356.59
2023-04-25T03:47:14.064Z,94360.63
2023-04-25T03:49:40.720Z,94359.78
2023-04-25T03:52:07.597Z,94363.38
2023-04-25T03:54:38.434Z,94362.47
2023-04-25T03:57:15.148Z,94352.47
2023-04-25T03:59:43.220Z,94357.22
2023-04-25T04:02:12.379Z,94357.75
2023-04-25T04:04:40.252Z,94355.25
2023-04-25T04:07:07.285Z,94355.38
2023-04-25T04:09:36.661Z,94362.91
2023-04-25T04:12:08.056Z,94362.09
2023-04-25T04:14:35.958Z,94362.91
2023-04-25T04:17:02.716Z,94377.59
2023-04-25T04:19:29.571Z,94385.13
2023-04-25T04:22:09.710Z,94376.69
2023-04-25T04:24:36.569Z,94359.34
2023-04-25T04:27:07.022Z,94340.50
2023-04-25T04:29:38.551Z,94342.38
2023-04-25T04:32:26.557Z,94345.91
2023-04-25T04:34:55.873Z,94335.81
2023-04-25T04:37:23.575Z,94339.03
2023-04-25T04:39:51.527Z,94343.59
2023-04-25T04:42:39.765Z,94361.50
2023-04-25T04:45:17.220Z,94363.84
2023-04-25T04:48:13.055Z,94354.94
2023-04-25T04:51:10.295Z,94353.88
2023-04-25T04:53:42.976Z,94360.47
2023-04-25T04:56:24.778Z,94358.81
2023-04-25T04:59:04.192Z,94353.19
2023-04-25T05:01:47.786Z,94349.56
2023-04-25T05:04:46.741Z,94351.72
2023-04-25T05:07:32.658Z,94344.47
2023-04-25T05:10:21.357Z,94355.75
2023-04-25T05:12:57.286Z,94343.28
2023-04-25T05:15:23.935Z,94347.03
2023-04-25T05:18:10.836Z,94354.84
2023-04-25T05:20:40.384Z,94357.66
2023-04-25T05:23:36.309Z,94360.66
2023-04-25T05:26:25.086Z,94365.34
2023-04-25T05:29:10.331Z,94364.94
2023-04-25T05:31:55.759Z,94373.44
2023-04-25T05:34:22.446Z,94368.72
2023-04-25T05:37:09.528Z,94372.22
2023-04-25T05:39:46.610Z,94374.91
2023-04-25T05:42:48.395Z,94371.28
2023-04-25T05:45:20.970Z,94367.66
2023-04-25T05:47:55.877Z,94366.69
2023-04-25T05:50:32.993Z,94360.91
2023-04-25T05:53:33.351Z,94361.97
2023-04-25T05:56:02.281Z,94364.41
2023-04-25T05:58:29.999Z,94360.34
2023-04-25T06:00:57.672Z,94356.97
2023-04-25T06:03:24.706Z,94357.13
2023-04-25T06:05:51.613Z,94356.28
2023-04-25T06:08:20.034Z,94362.22
2023-04-25T06:10:46.701Z,94349.22
2023-04-25T06:13:14.302Z,94366.19
2023-04-25T06:15:41.282Z,94356.91
2023-04-25T06:18:08.420Z,94358.31
2023-04-25T06:20:35.115Z,94362.47
2023-04-25T06:23:01.934Z,94357.94
2023-04-25T06:25:40.907Z,94357.97
2023-04-25T06:28:07.592Z,94354.75
2023-04-25T06:30:34.668Z,94352.19
2023-04-25T06:33:06.728Z,94352.28
2023-04-25T06:35:33.540Z,94347.88
2023-04-25T06:38:00.915Z,94349.59
2023-04-25T06:40:31.753Z,94349.06
2023-04-25T06:42:58.902Z,94345.78
2023-04-25T06:45:48.260Z,94342.69
2023-04-25T06:48:15.298Z,94352.94
2023-04-25T06:50:42.753Z,94341.78
2023-04-25T06:53:09.858Z,94347.22
2023-04-25T06:55:37.085Z,94345.16
2023-04-25T06:58:12.232Z,94345.84
2023-04-25T07:00:59.093Z,94343.28
2023-04-25T07:03:26.866Z,94339.28
2023-04-25T07:05:58.207Z,94342.94
2023-04-25T07:08:25.841Z,94337.00
2023-04-25T07:10:52.390Z,94337.09
2023-04-25T07:13:18.944Z,94337.81
2023-04-25T07:15:46.153Z,94335.16
2023-04-25T07:18:13.641Z,94329.53
2023-04-25T07:20:40.534Z,94322.38
2023-04-25T07:23:07.294Z,94329.31
2023-04-25T07:25:34.083Z,94330.91
2023-04-25T07:28:01.825Z,94331.19
2023-04-25T07:30:28.590Z,94331.44
2023-04-25T07:32:55.515Z,94326.81
2023-04-25T07:35:22.327Z,94320.91
2023-04-25T07:37:49.297Z,94320.88
2023-04-25T07:40:19.297Z,94318.25
2023-04-25T07:42:52.797Z,94324.06
2023-04-25T07:45:27.118Z,94329.25
2023-04-25T07:47:54.568Z,94330.22
2023-04-25T07:50:22.222Z,94315.56
2023-04-25T07:52:48.874Z,94321.06
2023-04-25T07:55:25.722Z,94322.19
2023-04-25T07:58:16.326Z,94323.41
2023-04-25T08:00:45.695Z,94323.22
2023-04-25T08:03:26.028Z,94327.72
2023-04-25T08:05:54.489Z,94323.41
2023-04-25T08:08:21.386Z,94329.91
2023-04-25T08:10:49.506Z,94324.28
2023-04-25T08:13:17.367Z,94320.53
2023-04-25T08:15:45.412Z,94323.19
2023-04-25T08:18:12.203Z,94320.34
2023-04-25T08:20:38.836Z,94318.72
2023-04-25T08:23:07.901Z,94319.31
2023-04-25T08:25:57.767Z,94321.47
2023-04-25T08:28:27.927Z,94325.31
2023-04-25T08:30:55.654Z,94324.88
2023-04-25T08:33:22.542Z,94328.22
2023-04-25T08:36:09.506Z,94323.59
2023-04-25T08:38:37.675Z,94326.59
2023-04-25T08:41:07.484Z,94329.34
2023-04-25T08:43:36.060Z,94330.91
2023-04-25T08:46:03.615Z,94331.88
2023-04-25T08:48:41.548Z,94332.00
2023-04-25T08:53:46.147Z,94332.28
2023-04-25T08:56:17.863Z,94331.13
2023-04-25T08:58:51.665Z,94331.75
2023-04-25T09:01:19.674Z,94326.34
2023-04-25T09:03:52.188Z,94328.56
2023-04-25T09:06:20.348Z,94329.97
2023-04-25T09:08:51.251Z,94327.59
2023-04-25T09:11:19.615Z,94333.13
2023-04-25T09:13:47.138Z,94331.16
2023-04-25T09:16:23.344Z,94336.38
2023-04-25T09:19:28.412Z,94339.44
2023-04-25T09:22:07.692Z,94347.41
2023-04-25T09:24:42.588Z,94343.22
2023-04-25T09:27:11.406Z,94340.31
2023-04-25T09:29:41.532Z,94345.88
2023-04-25T09:32:14.210Z,94348.88
2023-04-25T09:34:43.217Z,94351.16
2023-04-25T09:37:13.153Z,94345.44
2023-04-25T09:40:15.205Z,94353.06
2023-04-25T09:43:00.126Z,94351.31
2023-04-25T09:45:30.444Z,94353.69
2023-04-25T09:47:58.872Z,94359.72
2023-04-25T09:50:31.040Z,94367.19
2023-04-25T09:53:07.083Z,94373.19
2023-04-25T09:55:57.901Z,94369.88
2023-04-25T09:58:32.401Z,94365.41
2023-04-25T10:01:04.036Z,94385.75
2023-04-25T10:03:41.427Z,94376.34
2023-04-25T10:06:20.733Z,94374.22
2023-04-25T10:08:53.209Z,94378.28
2023-04-25T10:11:20.548Z,94377.25
2023-04-25T10:13:49.008Z,94379.66
2023-04-25T10:16:17.500Z,94379.03
2023-04-25T10:18:44.214Z,94380.28
2023-04-25T10:21:12.150Z,94388.94
2023-04-25T10:23:39.739Z,94404.09
2023-04-25T10:26:06.712Z,94414.31
2023-04-25T10:29:03.693Z,94414.44
2023-04-25T10:31:31.956Z,94433.09
2023-04-25T10:34:00.311Z,94440.66
2023-04-25T10:36:30.108Z,94450.13
2023-04-25T10:38:58.999Z,94451.22
2023-04-25T10:41:25.629Z,94457.16
2023-04-25T10:44:02.306Z,94455.06
2023-04-25T10:46:31.836Z,94463.47
2023-04-25T10:49:00.769Z,94468.31
2023-04-25T10:51:32.432Z,94470.66
2023-04-25T10:54:06.347Z,94467.00
2023-04-25T10:56:45.644Z,94471.25
2023-04-25T10:59:13.357Z,94484.53
2023-04-25T11:01:47.510Z,94489.34
2023-04-25T11:04:43.723Z,94491.22
2023-04-25T11:07:10.718Z,94490.59
2023-04-25T11:09:41.347Z,94491.59
2023-04-25T11:12:10.028Z,94500.22
2023-04-25T11:14:37.242Z,94501.03
2023-04-25T11:17:09.291Z,94490.41
2023-04-25T11:19:36.358Z,94494.72
2023-04-25T11:22:04.169Z,94500.88
2023-04-25T11:24:31.964Z,94499.81
2023-04-25T11:27:00.358Z,94500.09
2023-04-25T11:29:31.755Z,94496.19
2023-04-25T11:32:02.466Z,94497.41
2023-04-25T11:34:33.955Z,94504.78
2023-04-25T11:37:03.436Z,94494.69
2023-04-25T11:39:31.711Z,94494.66
2023-04-25T11:41:58.872Z,94490.88
2023-04-25T11:44:26.422Z,94495.84
2023-04-25T11:46:53.267Z,94491.59
2023-04-25T11:49:20.037Z,94488.44
2023-04-25T11:51:48.771Z,94497.00
2023-04-25T11:54:16.693Z,94508.19
2023-04-25T11:56:46.716Z,94506.28
2023-04-25T11:59:14.246Z,94500.59
2023-04-25T12:01:48.319Z,94501.63
2023-04-25T12:04:23.360Z,94503.72
2023-04-25T12:06:53.145Z,94501.66
2023-04-25T12:09:30.661Z,94503.19
2023-04-25T12:12:04.882Z,94506.13
2023-04-25T12:14:34.192Z,94498.31
2023-04-25T12:17:02.371Z,94499.28
2023-04-25T12:19:37.340Z,94496.06
2023-04-25T12:22:19.368Z,94498.41
2023-04-25T12:24:46.265Z,94499.22
2023-04-25T12:27:19.756Z,94504.28
2023-04-25T12:29:55.658Z,94505.97
2023-04-25T12:32:23.458Z,94500.53
2023-04-25T12:34:50.633Z,94497.72
2023-04-25T12:37:17.296Z,94504.72
2023-04-25T12:39:44.450Z,94502.31
2023-04-25T12:42:14.366Z,94507.50
2023-04-25T12:44:41.988Z,94505.16
2023-04-25T12:47:09.184Z,94506.03
2023-04-25T12:49:35.922Z,94508.56
2023-04-25T12:52:02.783Z,94512.56
2023-04-25T12:54:29.564Z,94511.91
2023-04-25T12:56:56.342Z,94506.53
2023-04-25T12:59:23.449Z,94521.50
2023-04-25T13:01:50.686Z,94514.09
2023-04-25T13:04:17.699Z,94520.75
2023-04-25T13:06:44.516Z,94524.19
2023-04-25T13:09:13.267Z,94521.28
2023-04-25T13:11:40.090Z,94524.50
2023-04-25T13:14:07.718Z,94529.66
2023-04-25T13:16:34.475Z,94529.69
2023-04-25T13:19:01.603Z,94534.53
2023-04-25T13:21:28.146Z,94528.44
2023-04-25T13:23:55.242Z,94531.03
2023-04-25T13:26:22.300Z,94539.88
2023-04-25T13:28:48.935Z,94534.28
2023-04-25T13:31:15.841Z,94531.69
2023-04-25T13:33:42.357Z,94538.59
2023-04-25T13:36:09.199Z,94540.22
2023-04-25T13:38:36.036Z,94545.66
2023-04-25T13:41:03.136Z,94547.72
2023-04-25T13:43:29.718Z,94550.59
2023-04-25T13:45:56.454Z,94549.91
2023-04-25T13:48:24.320Z,94554.47
2023-04-25T13:50:50.924Z,94557.91
2023-04-25T13:53:17.522Z,94560.56
2023-04-25T13:55:44.303Z,94566.09
2023-04-25T13:58:11.261Z,94561.44
2023-04-25T14:00:39.993Z,94573.59
2023-04-25T14:03:08.862Z,94575.53
2023-04-25T14:05:40.354Z,94573.69
2023-04-25T14:08:09.021Z,94569.31
2023-04-25T14:10:36.706Z,94576.53
2023-04-25T14:13:04.486Z,94576.56
2023-04-25T14:15:33.104Z,94582.75
2023-04-25T14:18:01.364Z,94577.56
2023-04-25T14:20:28.718Z,94577.41
2023-04-25T14:22:56.987Z,94581.69
2023-04-25T14:25:24.414Z,94583.88
2023-04-25T14:27:51.601Z,94591.56
2023-04-25T14:30:22.288Z,94589.63
2023-04-25T14:32:50.655Z,94591.88
2023-04-25T14:35:17.839Z,94598.94
2023-04-25T14:37:44.951Z,94592.94
2023-04-25T14:40:13.902Z,94602.84
2023-04-25T14:42:40.955Z,94598.66
2023-04-25T14:45:09.596Z,94598.81
2023-04-25T14:47:39.663Z,94604.69
2023-04-25T14:50:07.585Z,94604.22
2023-04-25T14:52:34.321Z,94606.69
2023-04-25T14:55:05.627Z,94600.69
2023-04-25T14:57:35.999Z,94611.19
2023-04-25T15:00:05.923Z,94617.16
2023-04-25T15:02:32.645Z,94612.19
2023-04-25T15:04:59.551Z,94618.44
2023-04-25T15:07:26.740Z,94608.66
2023-04-25T15:09:54.514Z,94617.19
2023-04-25T15:12:21.475Z,94625.84
2023-04-25T15:14:48.243Z,94631.59
2023-04-25T15:17:15.796Z,94633.38
2023-04-25T15:19:42.585Z,94640.59
2023-04-25T15:22:09.306Z,94638.00
2023-04-25T15:24:36.309Z,94640.72
2023-04-25T15:27:03.871Z,94640.13
2023-04-25T15:29:31.107Z,94637.53
2023-04-25T15:31:58.359Z,94643.59
2023-04-25T15:34:24.936Z,94643.84
2023-04-25T15:36:51.712Z,94645.72
2023-04-25T15:39:18.405Z,94653.81
2023-04-25T15:41:45.111Z,94658.81
2023-04-25T15:44:11.810Z,94658.03
2023-04-25T15:46:39.029Z,94650.38
2023-04-25T15:49:05.595Z,94657.72
2023-04-25T15:51:33.620Z,94664.69
2023-04-25T15:54:00.871Z,94665.44
2023-04-25T15:56:27.814Z,94658.09
2023-04-25T15:58:55.481Z,94666.34
2023-04-25T16:01:24.692Z,94670.63
2023-04-25T16:06:19.255Z,94667.16
2023-04-25T16:08:45.941Z,94661.63
2023-04-25T16:11:14.938Z,94667.03
2023-04-25T16:13:41.665Z,94660.81
2023-04-25T16:16:08.516Z,94668.69
2023-04-25T16:18:35.741Z,94669.59
2023-04-25T16:21:02.556Z,94666.94
2023-04-25T16:23:29.516Z,94669.19
2023-04-25T16:25:56.094Z,94674.50
2023-04-25T16:28:22.763Z,94686.00
2023-04-25T16:30:49.693Z,94677.69
2023-04-25T16:33:16.306Z,94681.25
2023-04-25T16:35:43.048Z,94677.94
2023-04-25T16:38:09.737Z,94690.78
2023-04-25T16:40:36.715Z,94684.38
2023-04-25T16:43:03.252Z,94690.09
2023-04-25T16:45:30.042Z,94689.75
2023-04-25T16:47:56.810Z,94692.00
2023-04-25T16:50:24.566Z,94695.56
2023-04-25T16:52:51.338Z,94704.97
2023-04-25T16:55:18.456Z,94696.28
2023-04-25T16:57:45.161Z,94700.84
2023-04-25T17:00:12.808Z,94698.03
2023-04-25T17:02:39.592Z,94702.06
2023-04-25T17:05:06.805Z,94704.22
2023-04-25T17:07:33.390Z,94703.19
2023-04-25T17:10:00.251Z,94703.47
2023-04-25T17:12:27.161Z,94704.84
2023-04-25T17:14:53.989Z,94706.75
2023-04-25T17:17:21.512Z,94708.16
2023-04-25T17:19:48.131Z,94709.75
2023-04-25T17:22:14.919Z,94716.09
2023-04-25T17:24:41.750Z,94719.44
2023-04-25T17:27:08.771Z,94726.75
2023-04-25T17:29:35.625Z,94719.22
2023-04-25T17:32:03.168Z,94726.41
2023-04-25T17:34:31.717Z,94725.75
2023-04-25T17:36:58.692Z,94720.31
2023-04-25T17:39:25.394Z,94723.75
2023-04-25T17:41:52.190Z,94721.03
2023-04-25T17:44:18.915Z,94723.88
2023-04-25T17:46:45.722Z,94726.16
2023-04-25T17:49:12.471Z,94717.91
2023-04-25T17:51:39.055Z,94722.78
2023-04-25T17:54:05.909Z,94737.19
2023-04-25T17:56:36.515Z,94735.41
2023-04-25T17:59:03.307Z,94730.94
2023-04-25T18:01:30.464Z,94737.66
2023-04-25T18:03:57.253Z,94746.47
2023-04-25T18:06:23.985Z,94753.22
2023-04-25T18:08:50.883Z,94760.94
2023-04-25T18:11:18.086Z,94761.31
2023-04-25T18:13:44.775Z,94763.38
2023-04-25T18:16:11.619Z,94766.56
2023-04-25T18:18:38.656Z,94780.56
2023-04-25T18:21:07.785Z,94779.78
2023-04-25T18:23:35.242Z,94780.97
2023-04-25T18:26:03.984Z,94783.25
2023-04-25T18:28:31.236Z,94779.47
2023-04-25T18:30:57.977Z,94788.22
2023-04-25T18:33:25.234Z,94787.09
2023-04-25T18:38:34.807Z,94797.84
2023-04-25T18:41:24.039Z,94802.41
2023-04-25T18:43:54.437Z,94801.91
2023-04-25T18:46:24.606Z,94814.69
2023-04-25T18:48:55.163Z,94820.84
2023-04-25T18:51:23.553Z,94826.56
2023-04-25T18:53:50.714Z,94834.81
2023-04-25T18:56:17.506Z,94826.84
2023-04-25T18:58:44.330Z,94834.66
2023-04-25T19:01:10.979Z,94837.91
2023-04-25T19:03:38.359Z,94856.09
2023-04-25T19:06:05.189Z,94852.72
2023-04-25T19:08:32.114Z,94850.19
2023-04-25T19:11:02.843Z,94857.84
2023-04-25T19:13:35.180Z,94859.88
2023-04-25T19:16:01.951Z,94868.66
2023-04-25T19:18:28.502Z,94864.22
2023-04-25T19:20:55.223Z,94864.66
2023-04-25T19:23:25.671Z,94861.91
2023-04-25T19:25:53.104Z,94865.63
2023-04-25T19:28:20.266Z,94874.91
2023-04-25T19:30:47.113Z,94865.34
2023-04-25T19:33:14.036Z,94863.06
2023-04-25T19:35:41.209Z,94868.88
2023-04-25T19:38:08.420Z,94868.03
2023-04-25T19:40:34.973Z,94861.41
2023-04-25T19:43:01.661Z,94865.47
2023-04-25T19:45:28.492Z,94865.97
2023-04-25T19:47:56.111Z,94871.53
2023-04-25T19:50:22.850Z,94862.72
2023-04-25T19:52:49.731Z,94865.97
2023-04-25T19:55:16.376Z,94860.88
2023-04-25T19:57:43.006Z,94873.19
2023-04-25T20:00:14.352Z,94872.78
2023-04-25T20:02:43.597Z,94875.53
2023-04-25T20:05:12.389Z,94884.38
2023-04-25T20:07:39.270Z,94881.91
2023-04-25T20:10:07.938Z,94883.00
2023-04-25T20:12:40.202Z,94877.94
2023-04-25T20:15:11.748Z,94874.88
2023-04-25T20:17:40.044Z,94873.47
2023-04-25T20:20:07.776Z,94878.34
2023-04-25T20:22:38.754Z,94880.81
2023-04-25T20:25:07.184Z,94880.00
2023-04-25T20:27:33.888Z,94882.38
2023-04-25T20:30:04.570Z,94875.78
2023-04-25T20:32:34.579Z,94876.28
2023-04-25T20:35:05.782Z,94864.31
2023-04-25T20:37:33.208Z,94874.72
2023-04-25T20:40:00.615Z,94875.91
2023-04-25T20:42:27.749Z,94875.34
2023-04-25T20:44:54.703Z,94876.84
2023-04-25T20:47:22.535Z,94871.16
2023-04-25T20:49:49.325Z,94871.84
2023-04-25T20:52:17.211Z,94874.97
2023-04-25T20:54:43.851Z,94880.53
2023-04-25T20:57:11.353Z,94874.13
2023-04-25T20:59:37.963Z,94879.94
2023-04-25T21:02:05.122Z,94885.28
2023-04-25T21:04:32.157Z,94886.88
2023-04-25T21:07:00.258Z,94887.00
2023-04-25T21:09:27.076Z,94887.75
2023-04-25T21:11:53.781Z,94889.72
2023-04-25T21:14:20.398Z,94893.56
2023-04-25T21:16:47.438Z,94891.59
2023-04-25T21:19:14.018Z,94893.00
2023-04-25T21:21:40.887Z,94886.81
2023-04-25T21:24:07.988Z,94889.50
2023-04-25T21:26:34.656Z,94891.84
2023-04-25T21:29:01.727Z,94898.66
2023-04-25T21:31:28.309Z,94892.94
2023-04-25T21:33:54.959Z,94890.78
2023-04-25T21:36:22.716Z,94896.94
2023-04-25T21:38:49.864Z,94894.38
2023-04-25T21:41:16.906Z,94893.47
2023-04-25T21:43:45.123Z,94886.22
2023-04-25T21:46:22.947Z,94893.56
2023-04-25T21:48:51.628Z,94886.13
2023-04-25T21:51:18.889Z,94898.41
2023-04-25T21:53:45.538Z,94895.97
2023-04-25T21:56:12.574Z,94899.34
2023-04-25T21:58:39.270Z,94898.66
2023-04-25T22:01:06.068Z,94893.44
2023-04-25T22:03:33.208Z,94895.53
2023-04-25T22:06:00.280Z,94902.97
2023-04-25T22:08:26.837Z,94907.19
2023-04-25T22:10:55.121Z,94909.84
2023-04-25T22:13:22.822Z,94908.91
2023-04-25T22:15:49.590Z,94913.34
2023-04-25T22:18:16.549Z,94904.63
2023-04-25T22:20:44.396Z,94903.13
2023-04-25T22:23:12.163Z,94904.53
2023-04-25T22:25:39.129Z,94902.31
2023-04-25T22:28:05.897Z,94912.19
2023-04-25T22:30:32.777Z,94913.00
2023-04-25T22:32:59.549Z,94912.28
2023-04-25T22:35:26.569Z,94915.81
2023-04-25T22:37:53.231Z,94911.25
2023-04-25T22:40:20.201Z,94917.66
2023-04-25T22:42:47.573Z,94912.28
2023-04-25T22:45:14.645Z,94920.44
2023-04-25T22:47:42.014Z,94911.47
2023-04-25T22:50:13.469Z,94911.38
2023-04-25T22:52:42.007Z,94922.88
2023-04-25T22:55:10.226Z,94922.75
2023-04-25T22:57:38.484Z,94918.06
2023-04-25T23:00:16.730Z,94927.63
2023-04-25T23:02:46.314Z,94927.03
2023-04-25T23:05:13.918Z,94921.69
2023-04-25T23:07:42.196Z,94918.09
2023-04-25T23:10:09.033Z,94919.81
2023-04-25T23:12:35.893Z,94917.59
2023-04-25T23:15:05.745Z,94920.13
2023-04-25T23:17:32.640Z,94929.00
2023-04-25T23:19:59.313Z,94917.97
2023-04-25T23:22:26.046Z,94931.34
2023-04-25T23:24:52.741Z,94934.03
2023-04-25T23:27:19.413Z,94928.53
2023-04-25T23:29:54.710Z,94923.19
2023-04-25T23:32:22.353Z,94920.50
2023-04-25T23:34:49.354Z,94927.03
2023-04-25T23:37:16.090Z,94930.50
2023-04-25T23:39:48.830Z,94926.53
2023-04-25T23:42:16.237Z,94925.84
2023-04-25T23:44:42.819Z,94928.50
2023-04-25T23:47:09.466Z,94923.06
2023-04-25T23:49:36.307Z,94930.88
2023-04-25T23:52:05.100Z,94932.59
2023-04-25T23:54:31.742Z,94929.13
2023-04-25T23:56:58.397Z,94935.53
2023-04-25T23:59:25.076Z,94930.78
